Time;durP1;ratioP1;P1;durP2;ratioP2;P2;SDS_P1;SDS_P2;PMS_P1;PMS_P2;Temp;Humidity;BMP_temperature;BMP_pressure;BME280_temperature;BME280_humidity;BME280_pressure;Samples;Min_cycle;Max_cycle;Signal;HPM_P1;HPM_P2
2022/04/09 00:00:26;;;;;;;2.35;0.57;;;4.10;99.90;;;;;;5051748;28;20402;-79
2022/04/09 00:02:51;;;;;;;1.60;0.38;;;4.00;99.90;;;;;;5087555;28;20380;-78
2022/04/09 00:05:17;;;;;;;3.45;0.60;;;4.00;99.90;;;;;;5086472;28;20063;-79
2022/04/09 00:07:43;;;;;;;7.95;1.10;;;4.00;99.90;;;;;;5087513;28;20119;-78
2022/04/09 00:10:11;;;;;;;3.38;0.60;;;4.00;99.90;;;;;;5087573;28;20044;-79
2022/04/09 00:12:38;;;;;;;5.07;1.25;;;4.00;99.90;;;;;;5086309;28;20056;-79
2022/04/09 00:15:05;;;;;;;8.07;0.65;;;4.00;99.90;;;;;;5087575;28;20386;-78
2022/04/09 00:17:42;;;;;;;5.60;0.82;;;4.10;99.90;;;;;;5086365;28;20094;-79
2022/04/09 00:20:09;;;;;;;8.18;0.90;;;4.10;99.90;;;;;;5069408;28;20093;-79
2022/04/09 00:22:36;;;;;;;8.23;1.00;;;4.20;99.90;;;;;;5086891;28;20089;-79
2022/04/09 00:25:04;;;;;;;6.95;1.13;;;4.30;99.90;;;;;;5087407;28;20422;-79
2022/04/09 00:27:30;;;;;;;10.35;0.93;;;4.30;99.90;;;;;;5069182;28;20036;-79
2022/04/09 00:29:55;;;;;;;7.88;1.20;;;4.40;99.90;;;;;;5086597;28;20050;-79
2022/04/09 00:32:21;;;;;;;12.10;1.23;;;4.40;99.90;;;;;;5087991;28;20048;-79
2022/04/09 00:34:47;;;;;;;6.72;0.90;;;4.40;99.90;;;;;;5087003;28;20123;-79
2022/04/09 00:37:13;;;;;;;5.63;0.85;;;4.40;99.90;;;;;;5088913;28;20071;-79
2022/04/09 00:39:39;;;;;;;9.48;1.08;;;4.30;99.90;;;;;;5088314;28;20051;-79
2022/04/09 00:42:05;;;;;;;6.22;0.57;;;4.30;99.90;;;;;;5089043;28;20040;-79
2022/04/09 00:44:34;;;;;;;6.60;0.88;;;4.30;99.90;;;;;;5093050;28;20044;-79
2022/04/09 00:47:00;;;;;;;7.85;0.70;;;4.20;99.90;;;;;;5075688;28;20074;-79
2022/04/09 00:49:28;;;;;;;10.90;1.08;;;4.20;99.90;;;;;;5078257;28;20028;-79
2022/04/09 00:51:55;;;;;;;6.35;0.70;;;4.20;99.90;;;;;;5090690;28;20040;-79
2022/04/09 00:54:24;;;;;;;6.03;0.50;;;4.20;99.90;;;;;;5091393;28;20096;-78
2022/04/09 00:56:52;;;;;;;5.03;1.10;;;4.20;99.90;;;;;;5072216;28;20047;-78
2022/04/09 00:59:21;;;;;;;3.45;0.73;;;4.20;99.90;;;;;;5090574;28;20464;-78
2022/04/09 01:01:48;;;;;;;4.32;0.50;;;4.20;99.90;;;;;;5090486;28;20044;-78
2022/04/09 01:04:14;;;;;;;3.72;0.55;;;4.20;99.90;;;;;;5089535;28;20051;-79
2022/04/09 01:06:39;;;;;;;5.38;0.50;;;4.30;99.90;;;;;;5090325;28;20043;-79
2022/04/09 01:09:08;;;;;;;3.80;0.60;;;4.10;99.90;;;;;;5089314;28;20047;-78
2022/04/09 01:11:34;;;;;;;6.90;0.75;;;4.20;99.90;;;;;;5055103;28;20060;-78
2022/04/09 01:14:01;;;;;;;8.30;0.80;;;4.20;99.90;;;;;;5054823;28;20044;-78
2022/04/09 01:16:30;;;;;;;5.18;0.85;;;4.50;99.90;;;;;;5072134;28;20470;-78
2022/04/09 01:18:58;;;;;;;9.63;0.77;;;4.20;99.90;;;;;;5072356;28;20495;-78
2022/04/09 01:21:24;;;;;;;3.75;0.63;;;4.20;99.90;;;;;;5071496;28;20569;-78
2022/04/09 01:23:50;;;;;;;7.45;0.90;;;4.20;99.90;;;;;;5055860;28;20068;-78
2022/04/09 01:26:16;;;;;;;3.78;0.90;;;4.10;99.90;;;;;;5089185;28;20149;-78
2022/04/09 01:28:43;;;;;;;6.43;0.52;;;4.00;99.90;;;;;;5071689;28;20044;-78
2022/04/09 01:31:09;;;;;;;8.55;1.02;;;4.00;99.90;;;;;;5071588;28;20071;-78
2022/04/09 01:33:35;;;;;;;7.40;0.98;;;3.90;99.90;;;;;;5071177;28;20078;-78
2022/04/09 01:36:01;;;;;;;10.43;1.05;;;3.80;99.90;;;;;;5038796;28;20047;-78
2022/04/09 01:38:27;;;;;;;9.73;0.68;;;3.80;99.90;;;;;;5089214;28;20105;-78
2022/04/09 01:40:54;;;;;;;6.47;0.75;;;3.70;99.90;;;;;;5089834;28;20063;-78
2022/04/09 01:43:20;;;;;;;5.10;1.00;;;3.70;99.90;;;;;;5070512;28;20521;-78
2022/04/09 01:45:46;;;;;;;5.50;0.70;;;3.70;99.90;;;;;;5038513;28;20499;-78
2022/04/09 01:48:12;;;;;;;7.90;0.77;;;3.60;99.90;;;;;;5055227;28;20036;-78
2022/04/09 01:50:38;;;;;;;6.07;0.52;;;3.60;99.90;;;;;;5071044;28;20040;-78
2022/04/09 01:53:04;;;;;;;3.83;0.68;;;3.60;99.90;;;;;;5070638;28;20403;-77
2022/04/09 01:55:31;;;;;;;8.32;1.00;;;3.70;99.90;;;;;;5070830;28;20047;-78
2022/04/09 01:57:57;;;;;;;12.55;2.83;;;5.00;99.90;;;;;;5071486;28;20096;-77
2022/04/09 02:00:24;;;;;;;7.07;0.85;;;3.80;99.90;;;;;;5070781;28;20094;-77
2022/04/09 02:02:51;;;;;;;8.18;1.23;;;3.80;99.90;;;;;;5071117;28;20087;-78
2022/04/09 02:05:18;;;;;;;8.25;0.60;;;3.80;99.90;;;;;;5088780;28;20094;-77
2022/04/09 02:07:45;;;;;;;10.10;0.82;;;3.80;99.90;;;;;;5070726;28;20048;-78
2022/04/09 02:10:11;;;;;;;6.90;0.85;;;3.80;99.90;;;;;;5054590;28;20048;-78
2022/04/09 02:12:38;;;;;;;9.40;0.75;;;3.70;99.90;;;;;;5053306;28;20135;-78
2022/04/09 02:15:09;;;;;;;3.28;1.02;;;3.70;99.90;;;;;;5070870;28;20040;-78
2022/04/09 02:17:36;;;;;;;11.88;0.90;;;3.70;99.90;;;;;;5088219;28;20040;-78
2022/04/09 02:20:06;;;;;;;7.25;0.90;;;3.60;99.90;;;;;;5070980;28;20078;-79
2022/04/09 02:22:41;;;;;;;2.50;0.70;;;3.60;99.90;;;;;;5070706;28;20055;-78
2022/04/09 02:25:10;;;;;;;8.93;1.15;;;3.50;99.90;;;;;;5070416;28;20039;-78
2022/04/09 02:27:36;;;;;;;8.15;0.50;;;3.50;99.90;;;;;;5088955;28;20048;-78
2022/04/09 02:30:04;;;;;;;14.52;1.73;;;3.40;99.90;;;;;;5088202;28;20036;-78
2022/04/09 02:32:29;;;;;;;8.93;0.70;;;3.50;99.90;;;;;;5070364;28;20083;-78
2022/04/09 02:34:56;;;;;;;10.20;1.42;;;3.60;99.90;;;;;;5088334;28;20181;-78
2022/04/09 02:37:22;;;;;;;9.48;0.90;;;3.60;99.90;;;;;;5088753;28;20040;-79
2022/04/09 02:39:48;;;;;;;4.45;0.68;;;4.00;99.90;;;;;;5088977;28;20055;-79
2022/04/09 02:42:14;;;;;;;5.20;0.90;;;3.80;99.90;;;;;;5088589;28;20527;-80
2022/04/09 02:44:40;;;;;;;3.13;0.60;;;3.80;99.90;;;;;;5070578;28;20047;-78
2022/04/09 02:47:06;;;;;;;3.63;0.63;;;4.30;99.90;;;;;;5069909;28;20082;-79
2022/04/09 02:49:32;;;;;;;7.00;0.90;;;3.80;99.90;;;;;;5054139;28;20074;-80
2022/04/09 02:51:58;;;;;;;10.18;1.10;;;3.70;99.90;;;;;;5088036;28;20048;-79
2022/04/09 02:54:24;;;;;;;5.05;0.50;;;3.70;99.90;;;;;;5088719;28;20048;-79
2022/04/09 02:56:49;;;;;;;5.72;0.55;;;3.70;99.90;;;;;;5088288;28;20082;-80
2022/04/09 02:59:15;;;;;;;10.82;0.82;;;3.60;99.90;;;;;;5053328;28;20408;-79
2022/04/09 03:01:45;;;;;;;3.25;0.40;;;3.60;99.90;;;;;;5070301;28;20550;-79
2022/04/09 03:04:11;;;;;;;4.25;0.95;;;3.60;99.90;;;;;;5069531;28;20040;-79
2022/04/09 03:06:36;;;;;;;4.65;1.00;;;3.50;99.90;;;;;;5070383;28;20127;-79
2022/04/09 03:09:03;;;;;;;2.75;0.60;;;3.50;99.90;;;;;;5069959;28;20400;-79
2022/04/09 03:11:28;;;;;;;10.15;0.60;;;3.40;99.90;;;;;;5070572;28;20040;-79
2022/04/09 03:13:54;;;;;;;8.50;0.80;;;3.40;99.90;;;;;;5053867;28;20060;-78
2022/04/09 03:16:20;;;;;;;5.43;0.70;;;4.00;99.90;;;;;;5089978;28;20036;-80
2022/04/09 03:18:45;;;;;;;9.95;1.10;;;3.50;99.90;;;;;;5058073;28;20059;-79
2022/04/09 03:21:11;;;;;;;4.97;0.73;;;3.40;99.90;;;;;;5053369;28;20040;-79
2022/04/09 03:23:36;;;;;;;5.22;1.00;;;3.50;99.90;;;;;;5070846;28;20534;-79
2022/04/09 03:26:02;;;;;;;9.60;1.13;;;3.50;99.90;;;;;;5069263;28;20051;-79
2022/04/09 03:28:28;;;;;;;12.75;1.25;;;3.50;99.90;;;;;;5087830;28;20036;-79
2022/04/09 03:30:53;;;;;;;5.22;0.82;;;3.60;99.90;;;;;;5052729;28;20036;-79
2022/04/09 03:33:19;;;;;;;6.25;0.75;;;3.60;99.90;;;;;;5052700;28;20058;-79
2022/04/09 03:35:47;;;;;;;12.30;1.00;;;3.70;99.90;;;;;;5069315;28;20040;-78
2022/04/09 03:38:13;;;;;;;7.78;0.90;;;3.70;99.90;;;;;;5068728;28;20133;-78
2022/04/09 03:40:39;;;;;;;8.07;0.80;;;3.70;99.90;;;;;;5088341;28;20138;-78
2022/04/09 03:43:05;;;;;;;5.20;1.00;;;3.70;99.90;;;;;;5068812;28;20048;-78
2022/04/09 03:45:31;;;;;;;5.97;1.17;;;3.70;99.90;;;;;;5069297;28;20058;-78
2022/04/09 03:47:57;;;;;;;9.63;1.27;;;3.70;99.90;;;;;;5087065;28;20040;-79
2022/04/09 03:50:23;;;;;;;5.82;1.27;;;3.70;99.90;;;;;;5069080;28;20040;-78
2022/04/09 03:52:49;;;;;;;9.57;0.80;;;3.70;99.90;;;;;;5068999;28;20525;-79
2022/04/09 03:55:15;;;;;;;14.88;0.80;;;4.70;99.90;;;;;;5052057;28;20055;-78
2022/04/09 03:57:41;;;;;;;8.43;1.10;;;3.70;99.90;;;;;;5087641;28;20047;-79
2022/04/09 04:00:08;;;;;;;3.63;0.88;;;3.70;99.90;;;;;;5069160;28;20036;-79
2022/04/09 04:02:35;;;;;;;9.13;1.42;;;3.70;99.90;;;;;;5069040;28;20086;-79
2022/04/09 04:05:03;;;;;;;5.47;0.93;;;3.70;99.90;;;;;;5068895;28;20449;-78
2022/04/09 04:07:32;;;;;;;8.82;1.20;;;3.60;99.90;;;;;;5053956;28;20044;-78
2022/04/09 04:10:09;;;;;;;9.35;1.52;;;3.70;99.90;;;;;;5087417;28;20052;-78
2022/04/09 04:12:35;;;;;;;2.95;0.88;;;3.70;99.90;;;;;;5048949;28;20056;-78
2022/04/09 04:15:02;;;;;;;9.55;1.13;;;3.70;99.90;;;;;;5049240;28;20052;-78
2022/04/09 04:17:41;;;;;;;4.50;1.05;;;3.70;99.90;;;;;;5069284;28;20124;-78
2022/04/09 04:20:10;;;;;;;11.93;1.20;;;3.80;99.90;;;;;;5071123;28;20045;-78
2022/04/09 04:22:35;;;;;;;3.88;0.80;;;3.80;99.90;;;;;;5070995;28;20045;-78
2022/04/09 04:25:03;;;;;;;20.38;1.23;;;3.90;99.90;;;;;;5069297;28;20041;-78
2022/04/09 04:27:29;;;;;;;7.75;0.95;;;3.80;99.90;;;;;;5052691;28;20488;-78
2022/04/09 04:29:59;;;;;;;6.30;0.82;;;3.80;99.90;;;;;;5069224;28;20051;-78
2022/04/09 04:32:25;;;;;;;8.55;1.02;;;4.10;99.90;;;;;;5070511;28;20101;-78
2022/04/09 04:34:51;;;;;;;9.02;1.08;;;3.70;99.90;;;;;;5069344;28;20049;-78
2022/04/09 04:37:17;;;;;;;5.10;0.93;;;3.70;99.90;;;;;;5069256;28;20162;-78
2022/04/09 04:39:43;;;;;;;4.60;0.77;;;4.30;99.90;;;;;;5036027;28;20087;-78
2022/04/09 04:42:09;;;;;;;8.60;0.82;;;3.60;99.90;;;;;;5068698;28;20048;-78
2022/04/09 04:44:34;;;;;;;3.30;1.00;;;3.60;99.90;;;;;;5052721;28;20044;-78
2022/04/09 04:47:00;;;;;;;10.55;1.10;;;3.50;99.90;;;;;;5068561;28;20468;-78
2022/04/09 04:49:26;;;;;;;10.32;1.42;;;3.50;99.90;;;;;;5052061;28;20045;-79
2022/04/09 04:51:51;;;;;;;8.00;1.00;;;3.50;99.90;;;;;;5068591;28;20357;-79
2022/04/09 04:54:17;;;;;;;8.00;1.02;;;3.50;99.90;;;;;;5068840;28;20040;-79
2022/04/09 04:56:43;;;;;;;8.45;0.90;;;3.40;99.90;;;;;;5052646;28;20055;-79
2022/04/09 04:59:09;;;;;;;13.02;1.27;;;3.40;99.90;;;;;;5070803;28;20056;-78
2022/04/09 05:01:37;;;;;;;4.80;1.33;;;3.40;99.90;;;;;;5069119;28;20033;-79
2022/04/09 05:04:03;;;;;;;17.38;0.90;;;3.40;99.90;;;;;;5068988;28;20449;-79
2022/04/09 05:06:29;;;;;;;12.90;0.98;;;3.30;99.90;;;;;;5068996;28;20403;-79
2022/04/09 05:08:55;;;;;;;11.65;1.70;;;3.30;99.90;;;;;;5052419;28;20049;-79
2022/04/09 05:11:21;;;;;;;4.55;0.57;;;3.30;99.90;;;;;;5068666;28;20072;-77
2022/04/09 05:13:47;;;;;;;9.48;1.05;;;3.30;99.90;;;;;;5089168;28;20095;-78
2022/04/09 05:16:13;;;;;;;10.50;1.10;;;3.30;99.90;;;;;;5090357;28;20076;-78
2022/04/09 05:18:39;;;;;;;10.88;3.15;;;3.30;99.90;;;;;;5054826;28;20087;-77
2022/04/09 05:21:05;;;;;;;9.73;0.82;;;3.30;99.90;;;;;;5090025;28;20032;-79
2022/04/09 05:23:31;;;;;;;12.93;1.65;;;3.40;99.90;;;;;;5072037;28;20036;-78
2022/04/09 05:25:57;;;;;;;10.93;0.82;;;3.80;99.90;;;;;;5071109;28;20078;-79
2022/04/09 05:28:23;;;;;;;12.52;1.10;;;3.50;99.90;;;;;;5054309;28;20040;-78
2022/04/09 05:30:50;;;;;;;10.55;1.25;;;3.60;99.90;;;;;;5089570;28;20040;-79
2022/04/09 05:33:17;;;;;;;13.55;1.50;;;3.80;99.90;;;;;;5072988;28;20552;-78
2022/04/09 05:35:43;;;;;;;7.72;0.90;;;3.70;99.90;;;;;;5075206;28;20044;-79
2022/04/09 05:38:10;;;;;;;8.63;1.20;;;4.10;99.90;;;;;;5074112;28;20115;-78
2022/04/09 05:40:36;;;;;;;11.00;0.95;;;3.90;99.90;;;;;;5055292;28;20079;-78
2022/04/09 05:43:03;;;;;;;7.90;1.55;;;4.00;99.90;;;;;;5072293;28;20106;-78
2022/04/09 05:45:29;;;;;;;11.60;1.60;;;4.10;99.90;;;;;;5072344;28;20189;-78
2022/04/09 05:47:55;;;;;;;10.10;0.98;;;4.10;99.90;;;;;;5039654;28;20101;-79
2022/04/09 05:50:20;;;;;;;5.10;0.68;;;4.10;99.90;;;;;;5090277;28;20048;-77
2022/04/09 05:52:46;;;;;;;4.13;0.93;;;5.40;99.90;;;;;;5089676;28;20052;-77
2022/04/09 05:55:12;;;;;;;11.30;0.95;;;4.20;99.90;;;;;;5089697;28;20036;-79
2022/04/09 05:57:38;;;;;;;14.23;1.70;;;4.20;99.90;;;;;;5071176;28;20044;-79
2022/04/09 06:00:05;;;;;;;10.30;1.13;;;4.60;99.90;;;;;;5070992;28;20114;-78
2022/04/09 06:02:31;;;;;;;5.63;0.85;;;4.20;99.90;;;;;;5070918;28;20044;-79
2022/04/09 06:04:57;;;;;;;7.57;0.82;;;4.30;99.90;;;;;;5088919;28;20055;-78
2022/04/09 06:07:24;;;;;;;4.10;0.68;;;4.40;99.90;;;;;;5070933;28;20052;-78
2022/04/09 06:09:52;;;;;;;7.90;1.35;;;4.50;99.90;;;;;;5070832;28;20385;-78
2022/04/09 06:12:17;;;;;;;5.15;0.70;;;4.60;99.90;;;;;;5067053;28;20057;-78
2022/04/09 06:14:43;;;;;;;6.35;0.70;;;4.70;99.90;;;;;;5067409;28;20079;-77
2022/04/09 06:17:10;;;;;;;4.53;0.57;;;4.70;99.90;;;;;;5066958;28;20040;-77
2022/04/09 06:19:35;;;;;;;6.60;0.75;;;4.70;99.90;;;;;;5051198;28;20044;-77
2022/04/09 06:22:01;;;;;;;3.65;0.70;;;4.60;99.90;;;;;;5050350;28;20126;-77
2022/04/09 06:24:27;;;;;;;5.57;1.00;;;4.60;99.90;;;;;;5067579;28;20467;-77
2022/04/09 06:26:52;;;;;;;6.90;0.82;;;4.50;99.90;;;;;;5050791;28;20051;-77
2022/04/09 06:29:18;;;;;;;6.45;0.68;;;4.50;99.90;;;;;;5067146;28;20044;-77
2022/04/09 06:31:47;;;;;;;8.38;0.82;;;4.50;99.90;;;;;;5067074;28;20048;-77
2022/04/09 06:34:14;;;;;;;8.63;0.93;;;4.60;99.90;;;;;;5067311;28;20048;-77
2022/04/09 06:36:40;;;;;;;4.43;1.08;;;4.70;99.90;;;;;;5067433;28;20113;-78
2022/04/09 06:39:05;;;;;;;14.63;1.85;;;4.80;99.90;;;;;;5049987;28;20443;-77
2022/04/09 06:41:33;;;;;;;6.50;1.00;;;5.10;99.90;;;;;;5067009;28;20427;-77
2022/04/09 06:43:59;;;;;;;9.77;1.70;;;5.40;99.90;;;;;;5034156;28;20040;-77
2022/04/09 06:46:25;;;;;;;5.05;0.82;;;5.50;99.90;;;;;;5067972;28;20578;-78
2022/04/09 06:48:51;;;;;;;10.60;1.40;;;5.50;99.90;;;;;;5066705;28;20465;-78
2022/04/09 06:51:17;;;;;;;13.68;1.52;;;6.40;99.90;;;;;;5068003;28;20048;-77
2022/04/09 06:53:43;;;;;;;7.53;0.88;;;5.50;99.90;;;;;;5066474;28;20102;-78
2022/04/09 06:56:08;;;;;;;13.63;1.73;;;5.50;99.90;;;;;;5066827;28;20076;-78
2022/04/09 06:58:34;;;;;;;15.18;1.50;;;5.50;99.90;;;;;;5066693;28;20446;-78
2022/04/09 07:01:01;;;;;;;20.35;1.85;;;5.40;99.90;;;;;;5066389;28;20421;-78
2022/04/09 07:03:28;;;;;;;9.45;0.95;;;5.60;99.90;;;;;;5033373;28;20399;-78
2022/04/09 07:05:54;;;;;;;9.93;1.10;;;5.60;99.90;;;;;;5049391;28;20040;-78
2022/04/09 07:08:20;;;;;;;7.82;1.52;;;5.80;99.90;;;;;;5049516;28;20044;-78
2022/04/09 07:10:46;;;;;;;13.48;1.50;;;6.10;99.90;;;;;;5066444;28;20193;-78
2022/04/09 07:13:12;;;;;;;7.07;0.75;;;7.00;99.90;;;;;;5048862;28;20128;-78
2022/04/09 07:15:38;;;;;;;10.88;0.95;;;6.30;99.90;;;;;;5066189;28;20123;-78
2022/04/09 07:18:04;;;;;;;4.35;0.70;;;6.30;99.90;;;;;;5065816;28;20036;-78
2022/04/09 07:20:30;;;;;;;4.72;0.68;;;6.10;99.90;;;;;;5066339;28;20048;-78
2022/04/09 07:22:56;;;;;;;12.48;1.05;;;6.00;99.90;;;;;;5049822;28;20369;-78
2022/04/09 07:25:22;;;;;;;10.82;0.98;;;6.00;99.90;;;;;;5066140;28;20121;-78
2022/04/09 07:27:48;;;;;;;10.85;0.95;;;6.00;99.90;;;;;;5049843;28;20102;-78
2022/04/09 07:30:19;;;;;;;9.43;1.08;;;6.10;99.90;;;;;;5049210;28;20076;-78
2022/04/09 07:32:46;;;;;;;16.42;1.13;;;6.20;99.90;;;;;;5049785;28;20368;-78
2022/04/09 07:35:12;;;;;;;12.73;1.02;;;6.40;99.90;;;;;;5065954;28;20048;-76
2022/04/09 07:37:46;;;;;;;10.85;0.93;;;7.40;99.90;;;;;;5049010;28;20155;-76
2022/04/09 07:40:14;;;;;;;4.28;0.98;;;6.90;99.90;;;;;;5032664;28;20412;-76
2022/04/09 07:42:42;;;;;;;12.57;1.38;;;7.10;99.90;;;;;;5049109;28;20087;-79
2022/04/09 07:45:09;;;;;;;10.82;1.33;;;7.10;99.90;;;;;;5067534;28;20040;-76
2022/04/09 07:47:35;;;;;;;6.05;0.75;;;7.20;99.90;;;;;;5065349;28;20048;-77
2022/04/09 07:50:02;;;;;;;20.42;2.13;;;7.20;99.90;;;;;;5067198;28;20488;-77
2022/04/09 07:52:28;;;;;;;13.88;1.15;;;7.30;99.90;;;;;;5066338;28;20053;-78
2022/04/09 07:54:57;;;;;;;4.63;0.80;;;7.40;99.90;;;;;;5065807;28;20097;-77
2022/04/09 07:57:24;;;;;;;6.10;1.27;;;7.40;99.90;;;;;;5049764;28;20049;-77
2022/04/09 07:59:50;;;;;;;6.78;1.27;;;7.50;99.90;;;;;;5067177;28;20047;-77
2022/04/09 08:02:16;;;;;;;7.40;1.17;;;7.70;99.90;;;;;;5067301;28;20129;-77
2022/04/09 08:04:41;;;;;;;10.48;1.20;;;7.70;99.90;;;;;;5065627;28;20045;-76
2022/04/09 08:07:07;;;;;;;11.68;1.33;;;7.90;99.90;;;;;;5065811;28;20049;-77
2022/04/09 08:09:33;;;;;;;16.63;2.05;;;8.10;99.90;;;;;;5065489;28;20048;-78
2022/04/09 08:11:58;;;;;;;9.55;1.42;;;8.10;99.90;;;;;;5068206;28;20048;-76
2022/04/09 08:14:25;;;;;;;11.85;1.00;;;8.20;99.90;;;;;;5069569;28;20402;-76
2022/04/09 08:16:51;;;;;;;10.43;1.50;;;8.10;99.90;;;;;;5069258;28;20554;-76
2022/04/09 08:19:18;;;;;;;9.52;0.82;;;8.10;99.90;;;;;;5052606;28;20123;-76
2022/04/09 08:21:44;;;;;;;8.20;0.73;;;8.20;99.90;;;;;;5035642;28;20036;-76
2022/04/09 08:24:11;;;;;;;14.82;1.13;;;8.30;99.90;;;;;;5068898;28;20055;-77
2022/04/09 08:26:37;;;;;;;12.80;1.05;;;8.50;99.90;;;;;;5068475;28;20495;-76
2022/04/09 08:29:04;;;;;;;8.20;1.48;;;8.60;99.90;;;;;;5069242;28;20054;-76
2022/04/09 08:31:30;;;;;;;12.98;1.23;;;8.70;99.90;;;;;;5036507;28;20043;-78
2022/04/09 08:33:57;;;;;;;8.65;0.88;;;8.70;99.90;;;;;;5086884;28;20475;-77
2022/04/09 08:36:23;;;;;;;4.45;0.60;;;10.00;99.90;;;;;;5069383;28;20044;-78
2022/04/09 08:38:48;;;;;;;7.63;1.10;;;8.50;99.90;;;;;;5068693;28;20055;-77
2022/04/09 08:41:15;;;;;;;7.95;1.00;;;8.40;99.90;;;;;;5068593;28;20044;-77
2022/04/09 08:43:41;;;;;;;8.43;1.20;;;8.40;99.90;;;;;;5087145;28;20040;-78
2022/04/09 08:46:07;;;;;;;9.77;1.20;;;8.40;99.90;;;;;;5068724;28;20082;-77
2022/04/09 08:48:36;;;;;;;11.45;2.30;;;8.40;99.90;;;;;;5086531;28;20071;-77
2022/04/09 08:51:01;;;;;;;4.80;1.15;;;8.50;99.90;;;;;;5069667;28;20044;-77
2022/04/09 08:53:28;;;;;;;8.10;1.08;;;8.50;99.90;;;;;;5087249;28;20491;-77
2022/04/09 08:55:53;;;;;;;8.18;0.93;;;8.50;99.90;;;;;;5086823;28;20152;-76
2022/04/09 08:58:19;;;;;;;4.32;0.80;;;8.80;99.90;;;;;;5069017;28;20538;-78
2022/04/09 09:00:46;;;;;;;8.05;0.70;;;8.00;99.90;;;;;;5068986;28;20040;-78
2022/04/09 09:03:14;;;;;;;1.85;0.55;;;7.50;99.90;;;;;;5087584;28;20044;-78
2022/04/09 09:05:46;;;;;;;3.75;0.88;;;7.00;99.90;;;;;;5055945;28;20399;-78
2022/04/09 09:08:12;;;;;;;2.80;0.68;;;6.70;99.90;;;;;;5090695;28;20070;-77
2022/04/09 09:10:39;;;;;;;5.03;0.52;;;6.30;99.90;;;;;;5091079;28;20036;-78
2022/04/09 09:13:10;;;;;;;1.35;0.43;;;6.10;99.90;;;;;;5089882;28;20052;-77
2022/04/09 09:15:51;;;;;;;4.05;0.50;;;6.00;99.90;;;;;;5071942;28;20044;-76
2022/04/09 09:18:26;;;;;;;2.67;0.47;;;6.10;99.90;;;;;;5072541;28;20446;-76
2022/04/09 09:20:56;;;;;;;4.18;0.63;;;6.40;99.90;;;;;;5071807;28;20055;-76
2022/04/09 09:23:23;;;;;;;1.52;0.22;;;6.70;99.90;;;;;;5055787;28;20374;-76
2022/04/09 09:25:51;;;;;;;1.27;0.40;;;7.20;99.90;;;;;;5089704;28;20554;-76
2022/04/09 09:28:34;;;;;;;5.03;0.60;;;7.50;99.90;;;;;;5071549;28;20048;-78
2022/04/09 09:31:01;;;;;;;1.27;0.30;;;8.00;99.90;;;;;;5071254;28;20506;-77
2022/04/09 09:33:28;;;;;;;4.90;0.63;;;8.40;99.90;;;;;;5071458;28;20166;-77
2022/04/09 09:35:56;;;;;;;4.10;0.50;;;8.80;99.90;;;;;;5089572;28;20514;-77
2022/04/09 09:38:29;;;;;;;5.78;0.70;;;9.10;99.90;;;;;;5089541;28;20392;-76
2022/04/09 09:40:57;;;;;;;7.35;0.75;;;9.50;99.90;;;;;;5071660;28;20046;-77
2022/04/09 09:43:26;;;;;;;2.50;0.45;;;9.80;99.90;;;;;;5071609;28;20232;-77
2022/04/09 09:45:54;;;;;;;6.78;0.98;;;9.70;99.90;;;;;;5054371;28;20051;-77
2022/04/09 09:48:28;;;;;;;5.82;0.80;;;9.30;99.90;;;;;;5071025;28;20044;-76
2022/04/09 09:50:56;;;;;;;3.35;0.47;;;8.70;99.90;;;;;;5055107;28;20044;-77
2022/04/09 09:53:33;;;;;;;3.15;0.45;;;8.00;99.90;;;;;;5089794;28;20394;-76
2022/04/09 09:56:00;;;;;;;3.65;0.75;;;7.60;99.90;;;;;;5089323;28;20044;-77
2022/04/09 09:58:28;;;;;;;2.88;0.50;;;7.30;99.90;;;;;;5055576;28;20892;-77
2022/04/09 10:00:56;;;;;;;1.27;0.63;;;7.00;99.90;;;;;;5071734;28;20052;-77
2022/04/09 10:03:23;;;;;;;0.80;0.10;;;7.30;99.90;;;;;;5089542;28;20078;-77
2022/04/09 10:05:50;;;;;;;1.95;0.20;;;7.00;99.90;;;;;;5089192;28;20429;-77
2022/04/09 10:08:17;;;;;;;1.05;0.10;;;7.10;99.90;;;;;;5054044;28;20059;-77
2022/04/09 10:10:48;;;;;;;0.10;0.10;;;7.20;99.90;;;;;;5054575;28;20105;-77
2022/04/09 10:13:20;;;;;;;1.75;0.17;;;7.20;99.90;;;;;;5066926;28;20388;-76
2022/04/09 10:15:50;;;;;;;0.60;0.10;;;7.20;99.90;;;;;;5068640;28;20165;-76
2022/04/09 10:18:22;;;;;;;0.35;0.10;;;7.30;99.90;;;;;;5066724;28;20279;-77
2022/04/09 10:20:59;;;;;;;3.75;0.35;;;7.50;99.90;;;;;;5068593;28;20076;-76
2022/04/09 10:23:27;;;;;;;1.02;0.10;;;7.80;99.90;;;;;;5068750;28;20102;-75
2022/04/09 10:25:53;;;;;;;1.35;0.28;;;8.20;99.90;;;;;;5066768;28;20061;-75
2022/04/09 10:28:36;;;;;;;3.78;0.50;;;8.50;99.90;;;;;;5050157;28;20049;-76
2022/04/09 10:31:22;;;;;;;5.20;0.40;;;8.50;99.90;;;;;;5066823;28;20075;-77
2022/04/09 10:33:56;;;;;;;4.18;0.77;;;8.50;99.90;;;;;;5066543;28;20513;-75
2022/04/09 10:36:40;;;;;;;4.07;0.68;;;8.60;99.90;;;;;;5067170;28;20496;-76
2022/04/09 10:39:22;;;;;;;4.65;0.68;;;8.60;99.90;;;;;;5066340;28;20049;-77
2022/04/09 10:41:51;;;;;;;2.30;0.35;;;8.70;99.90;;;;;;5067425;28;20423;-76
2022/04/09 10:44:40;;;;;;;2.47;0.47;;;8.90;99.90;;;;;;5066559;28;20063;-77
2022/04/09 10:47:05;;;;;;;4.90;0.40;;;9.10;99.90;;;;;;5066417;28;20098;-77
2022/04/09 10:49:31;;;;;;;3.13;0.45;;;9.00;99.90;;;;;;5066739;28;20037;-78
2022/04/09 10:52:06;;;;;;;1.10;0.32;;;9.40;99.90;;;;;;5066122;28;20059;-77
2022/04/09 10:54:36;;;;;;;1.48;0.17;;;8.70;99.90;;;;;;5066685;28;20080;-78
2022/04/09 10:57:09;;;;;;;2.58;0.77;;;8.80;99.90;;;;;;5066406;28;20044;-78
2022/04/09 10:59:37;;;;;;;5.30;0.57;;;9.00;99.90;;;;;;5067416;28;20045;-76
2022/04/09 11:02:04;;;;;;;2.53;0.35;;;9.20;99.90;;;;;;5068034;28;20094;-77
2022/04/09 11:07:05;;;;;;;4.78;0.40;;;9.50;99.90;;;;;;5067930;28;20068;-77
2022/04/09 11:09:53;;;;;;;2.25;0.40;;;9.60;99.90;;;;;;5067684;28;20098;-76
2022/04/09 11:12:26;;;;;;;5.70;0.60;;;9.70;99.90;;;;;;5072605;28;20449;-75
2022/04/09 11:14:55;;;;;;;13.88;1.20;;;9.80;99.90;;;;;;5088026;28;20055;-76
2022/04/09 11:17:37;;;;;;;3.40;0.52;;;10.00;99.90;;;;;;5087407;28;20044;-76
2022/04/09 11:20:05;;;;;;;6.68;0.80;;;10.30;99.90;;;;;;5069795;28;20079;-76
2022/04/09 11:22:39;;;;;;;6.88;0.98;;;10.40;99.90;;;;;;5069037;28;20539;-77
2022/04/09 11:25:08;;;;;;;10.93;1.55;;;10.50;99.90;;;;;;5087680;28;20052;-77
2022/04/09 11:27:35;;;;;;;3.88;0.60;;;10.40;99.90;;;;;;5087290;28;20123;-77
2022/04/09 11:30:01;;;;;;;6.85;1.30;;;10.30;99.90;;;;;;5052479;28;20051;-77
2022/04/09 11:32:28;;;;;;;2.65;0.60;;;10.10;99.90;;;;;;5087767;28;20067;-76
2022/04/09 11:34:57;;;;;;;8.02;0.98;;;9.80;99.90;;;;;;5069322;28;20395;-75
2022/04/09 11:37:30;;;;;;;4.80;0.80;;;9.60;99.90;;;;;;5069885;28;20537;-75
2022/04/09 11:39:57;;;;;;;5.82;0.60;;;9.40;99.90;;;;;;5069192;28;20044;-76
2022/04/09 11:42:23;;;;;;;8.30;1.30;;;9.20;99.90;;;;;;5068659;28;20040;-76
2022/04/09 11:44:49;;;;;;;4.95;0.68;;;9.00;99.90;;;;;;5069465;28;20048;-75
2022/04/09 11:47:17;;;;;;;6.05;0.60;;;9.10;99.90;;;;;;5052091;28;20093;-75
2022/04/09 11:49:44;;;;;;;3.03;0.60;;;9.40;99.90;;;;;;5069785;28;20039;-76
2022/04/09 11:52:11;;;;;;;3.92;1.05;;;9.70;99.90;;;;;;5068588;28;20487;-76
2022/04/09 11:54:39;;;;;;;10.20;0.80;;;9.70;99.90;;;;;;5069329;28;20051;-77
2022/04/09 11:57:10;;;;;;;4.88;0.52;;;9.50;99.90;;;;;;5052481;28;20074;-76
2022/04/09 11:59:36;;;;;;;13.25;1.15;;;9.30;99.90;;;;;;5068849;28;20046;-76
2022/04/09 12:02:02;;;;;;;9.80;0.80;;;9.10;99.90;;;;;;5087515;28;20054;-76
2022/04/09 12:04:34;;;;;;;9.55;0.98;;;9.00;99.90;;;;;;5086881;28;20052;-76
2022/04/09 12:07:04;;;;;;;4.88;0.55;;;9.20;99.90;;;;;;5087519;28;20048;-76
2022/04/09 12:09:31;;;;;;;5.95;0.70;;;9.60;99.90;;;;;;5068668;28;20044;-77
2022/04/09 12:12:01;;;;;;;5.80;1.10;;;9.80;99.90;;;;;;5068637;28;20040;-77
2022/04/09 12:14:28;;;;;;;4.60;0.55;;;9.80;99.90;;;;;;5087420;28;20441;-77
2022/04/09 12:16:54;;;;;;;9.48;0.85;;;9.70;99.90;;;;;;5086916;28;20485;-77
2022/04/09 12:19:31;;;;;;;5.60;1.13;;;9.90;99.90;;;;;;5052605;28;20415;-77
2022/04/09 12:22:20;;;;;;;7.18;0.73;;;10.10;99.90;;;;;;5068260;28;20052;-76
2022/04/09 12:24:47;;;;;;;2.55;0.45;;;10.10;99.90;;;;;;5068836;28;20126;-76
2022/04/09 12:27:13;;;;;;;4.85;0.65;;;10.20;99.90;;;;;;5019795;28;20079;-77
2022/04/09 12:29:47;;;;;;;4.15;0.73;;;10.20;99.90;;;;;;5068485;28;20081;-75
2022/04/09 12:32:14;;;;;;;2.75;0.40;;;10.00;99.90;;;;;;5068713;28;20094;-76
2022/04/09 12:35:03;;;;;;;3.25;0.50;;;9.90;99.90;;;;;;5086224;28;20594;-76
2022/04/09 12:37:29;;;;;;;4.50;0.55;;;9.90;99.90;;;;;;5069323;28;20055;-76
2022/04/09 12:40:32;;;;;;;5.22;0.73;;;10.30;99.90;;;;;;5073065;28;20398;-76
2022/04/09 12:43:01;;;;;;;8.63;0.90;;;9.90;99.90;;;;;;5011109;28;20061;-77
2022/04/09 12:45:28;;;;;;;5.95;0.88;;;9.80;99.90;;;;;;5062255;28;20302;-77
2022/04/09 12:47:59;;;;;;;5.75;0.70;;;9.70;99.90;;;;;;5055467;28;20048;-77
2022/04/09 12:50:29;;;;;;;7.53;0.82;;;9.90;99.90;;;;;;5072669;28;20485;-77
2022/04/09 12:53:03;;;;;;;4.40;0.95;;;10.00;99.90;;;;;;5091188;28;20383;-77
2022/04/09 12:55:32;;;;;;;7.22;1.00;;;10.20;99.90;;;;;;5090753;28;20078;-77
2022/04/09 12:58:00;;;;;;;4.93;0.73;;;10.30;99.90;;;;;;5055711;28;20498;-77
2022/04/09 13:00:31;;;;;;;7.72;0.80;;;10.30;99.90;;;;;;5071634;28;20080;-76